Time;durP1;ratioP1;P1;durP2;ratioP2;P2;SDS_P1;SDS_P2;PMS_P1;PMS_P2;Temp;Humidity;BMP_temperature;BMP_pressure;BME280_temperature;BME280_humidity;BME280_pressure;Samples;Min_cycle;Max_cycle;Signal;HPM_P1;HPM_P2
2022/08/23 00:00:41;;;;;;;8.48;2.17;;;23.80;75.10;;;;;;5085981;28;20047;-80
2022/08/23 00:03:07;;;;;;;6.03;2.72;;;23.80;75.20;;;;;;5078299;28;20063;-80
2022/08/23 00:05:33;;;;;;;6.75;2.80;;;23.80;75.30;;;;;;5075245;28;20037;-83
2022/08/23 00:07:58;;;;;;;19.50;3.05;;;23.80;75.60;;;;;;5075086;28;20029;-80
2022/08/23 00:10:24;;;;;;;8.40;2.55;;;23.70;75.60;;;;;;5057182;28;20431;-80
2022/08/23 00:12:50;;;;;;;5.70;2.20;;;23.70;75.80;;;;;;5046818;28;20469;-80
2022/08/23 00:15:18;;;;;;;6.30;2.42;;;23.70;75.80;;;;;;5056018;28;20035;-80
2022/08/23 00:17:44;;;;;;;5.72;2.67;;;23.70;75.90;;;;;;5073585;28;20024;-80
2022/08/23 00:20:16;;;;;;;5.65;2.50;;;23.70;76.00;;;;;;5092536;28;20542;-80
2022/08/23 00:22:41;;;;;;;10.40;2.83;;;23.60;76.10;;;;;;5070467;28;20017;-80
2022/08/23 00:25:10;;;;;;;5.70;2.40;;;23.60;76.10;;;;;;5074999;28;20526;-81
2022/08/23 00:27:36;;;;;;;6.40;2.83;;;23.60;76.40;;;;;;5074189;28;20064;-80
2022/08/23 00:30:05;;;;;;;8.48;2.60;;;23.50;76.50;;;;;;5074777;28;20031;-81
2022/08/23 00:32:34;;;;;;;5.15;2.75;;;23.50;76.70;;;;;;5076840;28;20027;-80
2022/08/23 00:34:59;;;;;;;7.55;2.67;;;23.50;76.70;;;;;;5094526;28;20024;-80
2022/08/23 00:37:27;;;;;;;5.55;2.75;;;23.50;76.90;;;;;;5074830;28;20036;-80
2022/08/23 00:39:52;;;;;;;6.43;2.60;;;23.40;77.00;;;;;;5064050;28;20111;-80
2022/08/23 00:48:36;;;;;;;8.25;3.08;;;23.40;77.30;;;;;;5048201;28;20035;-80
2022/08/23 00:51:17;;;;;;;7.40;2.92;;;23.30;77.40;;;;;;5087136;28;20016;-80
2022/08/23 00:53:48;;;;;;;5.97;2.67;;;23.30;77.80;;;;;;5060752;28;20452;-80
2022/08/23 00:56:17;;;;;;;8.82;2.97;;;23.20;77.80;;;;;;5060957;28;20024;-80
2022/08/23 00:58:45;;;;;;;7.50;2.97;;;23.20;78.00;;;;;;5054949;28;20029;-80
2022/08/23 01:01:12;;;;;;;7.18;2.75;;;23.20;78.00;;;;;;5055882;28;20009;-80
2022/08/23 01:03:41;;;;;;;7.03;3.08;;;23.20;78.20;;;;;;5056119;28;20036;-80
2022/08/23 01:06:10;;;;;;;8.82;3.70;;;23.10;78.30;;;;;;5059396;28;20020;-80
2022/08/23 01:08:38;;;;;;;4.72;2.83;;;23.10;78.40;;;;;;5066080;28;20024;-80
2022/08/23 01:11:10;;;;;;;8.23;2.70;;;23.10;78.60;;;;;;5055894;28;20025;-80
2022/08/23 01:13:55;;;;;;;8.70;3.47;;;23.00;78.70;;;;;;5046708;28;20025;-80
2022/08/23 01:16:32;;;;;;;9.18;3.05;;;23.00;78.90;;;;;;5053959;28;20021;-81
2022/08/23 01:19:00;;;;;;;5.88;2.80;;;23.00;79.10;;;;;;5073944;28;20118;-80
2022/08/23 01:21:56;;;;;;;8.13;3.03;;;23.00;79.40;;;;;;5073558;28;20017;-80
2022/08/23 01:24:22;;;;;;;13.23;3.20;;;23.00;79.30;;;;;;5071491;28;20130;-80
2022/08/23 01:26:49;;;;;;;8.25;3.13;;;22.90;79.40;;;;;;5082211;28;20055;-80
2022/08/23 01:29:16;;;;;;;8.02;3.17;;;22.90;79.40;;;;;;5053173;28;20041;-80
2022/08/23 01:31:42;;;;;;;7.10;3.13;;;22.80;79.60;;;;;;5038977;28;20025;-80
2022/08/23 01:34:10;;;;;;;9.70;3.08;;;22.90;79.60;;;;;;5055634;28;20094;-80
2022/08/23 01:36:36;;;;;;;7.22;3.30;;;22.80;79.70;;;;;;5073110;28;20103;-81
2022/08/23 01:39:04;;;;;;;9.38;3.15;;;22.80;80.10;;;;;;5073097;28;20384;-80
2022/08/23 01:41:30;;;;;;;6.55;2.80;;;22.80;80.30;;;;;;5056395;28;20103;-86
2022/08/23 01:43:56;;;;;;;10.15;3.20;;;22.70;80.30;;;;;;5069338;28;20515;-83
2022/08/23 01:46:23;;;;;;;7.05;3.13;;;22.70;80.50;;;;;;5055097;28;20048;-80
2022/08/23 01:48:50;;;;;;;7.30;3.30;;;22.70;80.70;;;;;;5073005;28;20067;-80
2022/08/23 01:51:18;;;;;;;5.88;2.63;;;22.70;80.80;;;;;;5063186;28;20028;-80
2022/08/23 01:53:45;;;;;;;5.32;2.95;;;22.60;80.90;;;;;;5061870;28;20056;-83
2022/08/23 01:56:11;;;;;;;8.07;3.00;;;22.60;81.10;;;;;;5055228;28;20012;-80
2022/08/23 01:58:37;;;;;;;7.40;3.10;;;22.60;81.10;;;;;;5038284;28;20388;-80
2022/08/23 02:01:03;;;;;;;10.23;3.10;;;22.60;81.20;;;;;;5038516;28;20104;-80
2022/08/23 02:03:30;;;;;;;8.52;3.30;;;22.50;81.50;;;;;;5055242;28;20472;-80
2022/08/23 02:05:57;;;;;;;5.95;3.15;;;22.50;81.70;;;;;;5055041;28;20021;-81
2022/08/23 02:11:13;;;;;;;8.23;3.78;;;22.40;82.00;;;;;;5057865;28;20450;-80
2022/08/23 02:13:43;;;;;;;7.10;2.70;;;22.40;82.20;;;;;;5055021;28;20071;-80
2022/08/23 02:16:09;;;;;;;5.47;3.03;;;22.40;82.20;;;;;;5055070;28;20048;-80
2022/08/23 02:18:35;;;;;;;5.72;2.92;;;22.40;82.30;;;;;;5072803;28;20046;-81
2022/08/23 02:21:01;;;;;;;7.20;3.05;;;22.30;82.30;;;;;;5055286;28;20223;-87
2022/08/23 02:23:27;;;;;;;8.77;3.35;;;22.30;82.50;;;;;;5040661;28;20488;-79
2022/08/23 02:25:53;;;;;;;7.53;3.30;;;22.30;82.60;;;;;;5054827;28;20032;-80
2022/08/23 02:28:21;;;;;;;7.75;3.85;;;22.30;82.60;;;;;;5054591;28;20044;-80
2022/08/23 02:30:47;;;;;;;11.27;3.80;;;22.30;82.80;;;;;;5054492;28;20025;-80
2022/08/23 02:33:14;;;;;;;7.35;3.45;;;22.20;82.80;;;;;;5054528;28;20021;-80
2022/08/23 02:35:40;;;;;;;10.70;3.17;;;22.20;83.00;;;;;;5063586;28;20024;-80
2022/08/23 02:38:08;;;;;;;6.40;3.63;;;22.20;83.10;;;;;;5060233;28;20028;-80
2022/08/23 02:40:34;;;;;;;5.75;3.70;;;22.20;83.20;;;;;;5065172;28;20040;-80
2022/08/23 02:43:01;;;;;;;8.80;4.30;;;22.20;83.20;;;;;;5034682;28;20037;-80
2022/08/23 02:45:28;;;;;;;7.20;3.60;;;22.10;83.30;;;;;;5070907;28;20025;-81
2022/08/23 02:47:54;;;;;;;7.18;3.90;;;22.10;83.30;;;;;;5050081;28;20506;-80
2022/08/23 02:50:20;;;;;;;8.13;3.75;;;22.10;83.30;;;;;;5064367;28;20028;-80
2022/08/23 02:52:46;;;;;;;10.50;4.90;;;22.10;83.50;;;;;;5076767;28;20487;-80
2022/08/23 02:55:12;;;;;;;11.70;4.35;;;22.10;83.70;;;;;;5054882;28;20119;-81
2022/08/23 02:57:40;;;;;;;6.88;3.95;;;22.00;83.80;;;;;;5048373;28;20021;-80
2022/08/23 03:00:09;;;;;;;8.07;3.90;;;22.00;84.00;;;;;;5042458;28;20033;-80
2022/08/23 03:02:36;;;;;;;9.55;4.05;;;22.00;84.10;;;;;;5078225;28;20021;-80
2022/08/23 03:05:04;;;;;;;7.03;3.83;;;22.00;84.40;;;;;;5021622;28;20039;-79
2022/08/23 03:07:30;;;;;;;7.13;4.30;;;22.00;84.50;;;;;;5054611;28;20079;-79
2022/08/23 03:09:56;;;;;;;9.23;4.35;;;21.90;84.40;;;;;;5054588;28;20028;-80
2022/08/23 03:12:22;;;;;;;6.97;4.13;;;21.90;84.40;;;;;;5036584;28;20400;-80
2022/08/23 03:14:49;;;;;;;9.57;4.50;;;21.90;85.10;;;;;;5060007;28;20037;-80
2022/08/23 03:17:15;;;;;;;7.18;4.88;;;21.90;84.40;;;;;;5062062;28;20065;-79
2022/08/23 03:19:41;;;;;;;8.07;4.38;;;21.80;84.40;;;;;;5077716;28;20124;-80
2022/08/23 03:22:06;;;;;;;10.52;4.00;;;21.80;84.50;;;;;;5056165;28;20028;-80
2022/08/23 03:24:32;;;;;;;8.93;4.10;;;21.80;84.80;;;;;;5057690;28;20436;-81
2022/08/23 03:26:58;;;;;;;8.15;4.30;;;21.70;84.90;;;;;;5057769;28;20032;-80
2022/08/23 03:29:24;;;;;;;10.00;3.90;;;21.70;85.20;;;;;;5041168;28;20115;-81
2022/08/23 03:31:50;;;;;;;9.48;4.65;;;21.70;85.10;;;;;;5041373;28;20029;-81
2022/08/23 03:34:16;;;;;;;9.13;4.22;;;21.70;85.20;;;;;;5075530;28;20040;-80
2022/08/23 03:36:41;;;;;;;9.35;4.07;;;21.70;85.50;;;;;;5071644;28;20024;-80
2022/08/23 03:39:07;;;;;;;6.45;3.90;;;21.70;85.40;;;;;;5101366;28;20388;-80
2022/08/23 03:41:33;;;;;;;7.85;4.10;;;21.60;85.40;;;;;;5043897;28;20029;-80
2022/08/23 03:43:59;;;;;;;7.60;4.43;;;21.60;85.60;;;;;;5075748;28;20044;-80
2022/08/23 03:46:24;;;;;;;8.02;3.90;;;21.60;85.80;;;;;;5057782;28;20025;-82
2022/08/23 03:49:00;;;;;;;6.60;4.05;;;21.60;86.20;;;;;;5027216;28;20123;-81
2022/08/23 03:51:28;;;;;;;8.32;4.07;;;21.50;86.50;;;;;;5057745;28;20115;-80
2022/08/23 03:53:53;;;;;;;6.68;3.78;;;21.50;86.60;;;;;;5057597;28;20423;-80
2022/08/23 03:56:33;;;;;;;9.00;3.97;;;21.50;86.70;;;;;;5083287;28;20024;-80
2022/08/23 03:59:01;;;;;;;6.85;4.30;;;21.50;86.40;;;;;;5062462;28;20035;-80
2022/08/23 04:01:27;;;;;;;9.73;5.03;;;21.40;86.20;;;;;;5066232;28;20436;-80
2022/08/23 04:03:53;;;;;;;11.63;5.05;;;21.30;86.00;;;;;;5076503;28;20061;-80
2022/08/23 04:06:18;;;;;;;9.20;4.57;;;21.30;86.20;;;;;;5057539;28;20480;-80
2022/08/23 04:08:44;;;;;;;11.82;5.07;;;21.20;86.40;;;;;;5055949;28;20388;-80
2022/08/23 04:11:13;;;;;;;9.65;4.65;;;21.10;86.50;;;;;;5047749;28;20020;-80
2022/08/23 04:13:39;;;;;;;11.07;4.50;;;21.00;86.60;;;;;;5063040;28;20037;-80
2022/08/23 04:16:06;;;;;;;10.32;4.75;;;21.00;86.80;;;;;;5056580;28;20019;-80
2022/08/23 04:18:32;;;;;;;8.55;4.70;;;20.90;87.10;;;;;;5057033;28;20488;-79
2022/08/23 04:21:01;;;;;;;9.27;4.70;;;20.90;87.40;;;;;;5056961;28;20028;-80
2022/08/23 04:23:27;;;;;;;10.73;4.78;;;20.90;87.80;;;;;;5056609;28;20040;-79
2022/08/23 04:25:54;;;;;;;12.15;4.60;;;20.90;88.10;;;;;;5056547;28;20036;-81
2022/08/23 04:28:21;;;;;;;11.32;4.95;;;20.80;88.10;;;;;;5093540;28;20020;-80
2022/08/23 04:30:49;;;;;;;9.55;5.05;;;20.80;88.10;;;;;;5080650;28;20029;-80
2022/08/23 04:33:16;;;;;;;10.27;5.07;;;20.80;88.20;;;;;;5055250;28;20107;-79
2022/08/23 04:35:42;;;;;;;8.63;5.10;;;20.80;88.50;;;;;;5078083;28;20024;-80
2022/08/23 04:38:07;;;;;;;8.90;4.88;;;20.80;88.70;;;;;;5084778;28;20028;-80
2022/08/23 04:43:18;;;;;;;12.82;5.70;;;20.80;89.00;;;;;;5064163;28;20039;-80
2022/08/23 04:45:44;;;;;;;8.35;4.63;;;20.80;89.30;;;;;;5057377;28;20029;-80
2022/08/23 04:48:09;;;;;;;8.63;5.55;;;20.70;89.20;;;;;;5059584;28;20111;-80
2022/08/23 04:50:36;;;;;;;10.90;4.78;;;20.70;89.10;;;;;;5064770;28;20021;-80
2022/08/23 04:53:02;;;;;;;8.85;4.78;;;20.70;89.20;;;;;;5068407;28;20116;-80
2022/08/23 04:55:28;;;;;;;8.15;4.75;;;20.70;89.40;;;;;;5091751;28;20036;-80
2022/08/23 04:57:54;;;;;;;7.45;4.65;;;20.60;89.40;;;;;;5043716;28;20467;-80
2022/08/23 05:00:20;;;;;;;10.65;5.05;;;20.60;89.60;;;;;;5055560;28;20024;-80
2022/08/23 05:02:46;;;;;;;8.65;5.72;;;20.60;90.00;;;;;;5055896;28;20107;-75
2022/08/23 05:05:12;;;;;;;13.30;5.65;;;20.60;90.10;;;;;;5087583;28;20199;-74
2022/08/23 05:07:38;;;;;;;12.38;5.50;;;20.60;90.20;;;;;;5055503;28;20039;-74
2022/08/23 05:10:06;;;;;;;9.25;5.05;;;20.60;90.40;;;;;;5038740;28;20036;-75
2022/08/23 05:12:32;;;;;;;9.18;5.00;;;20.60;90.40;;;;;;5073529;28;20036;-75
2022/08/23 05:14:58;;;;;;;8.25;5.18;;;20.50;90.50;;;;;;5073481;28;20220;-82
2022/08/23 05:17:23;;;;;;;9.13;5.28;;;20.60;90.70;;;;;;5053417;28;20109;-80
2022/08/23 05:19:49;;;;;;;9.27;5.80;;;20.60;90.80;;;;;;5049913;28;20107;-80
2022/08/23 05:22:15;;;;;;;8.60;5.65;;;20.60;90.90;;;;;;5036565;28;20036;-81
2022/08/23 05:24:40;;;;;;;9.07;5.13;;;20.60;91.00;;;;;;5107981;27;20056;-80
2022/08/23 05:27:06;;;;;;;8.80;5.00;;;20.60;91.40;;;;;;5088528;28;20032;-81
2022/08/23 05:29:32;;;;;;;9.57;4.63;;;20.60;91.20;;;;;;5056125;28;20068;-80
2022/08/23 05:31:57;;;;;;;8.10;4.78;;;20.60;91.30;;;;;;5056202;28;20029;-80
2022/08/23 05:34:24;;;;;;;9.23;5.63;;;20.60;91.40;;;;;;5058374;28;20036;-81
2022/08/23 05:36:51;;;;;;;8.20;5.53;;;20.60;91.50;;;;;;5089164;28;20040;-80
2022/08/23 05:39:17;;;;;;;11.02;5.30;;;20.70;91.60;;;;;;5093613;28;20028;-80
2022/08/23 05:41:43;;;;;;;9.75;5.57;;;20.70;91.70;;;;;;5109410;28;20468;-80
2022/08/23 05:44:09;;;;;;;13.05;6.20;;;20.70;91.80;;;;;;5075310;28;20067;-80
2022/08/23 05:46:36;;;;;;;10.38;5.75;;;20.70;92.10;;;;;;5104663;28;20116;-80
2022/08/23 05:49:02;;;;;;;8.02;5.75;;;20.70;92.00;;;;;;5065773;28;20460;-82
2022/08/23 05:51:34;;;;;;;9.27;5.68;;;20.70;92.10;;;;;;5075314;28;20024;-81
2022/08/23 05:54:03;;;;;;;9.02;5.80;;;20.80;92.20;;;;;;5058750;28;20038;-80
2022/08/23 05:56:35;;;;;;;15.02;7.25;;;20.80;92.30;;;;;;5075301;28;20077;-81
2022/08/23 05:59:05;;;;;;;12.07;6.80;;;20.80;92.30;;;;;;5084272;28;20020;-80
2022/08/23 06:01:31;;;;;;;11.35;7.38;;;20.90;92.30;;;;;;5075960;28;20020;-81
2022/08/23 06:03:59;;;;;;;10.13;6.80;;;20.90;92.30;;;;;;5085915;28;20043;-80
2022/08/23 06:06:25;;;;;;;11.80;6.45;;;20.90;92.20;;;;;;5086350;28;20027;-80
2022/08/23 06:08:51;;;;;;;11.73;7.50;;;20.90;92.20;;;;;;5075903;28;20048;-80
2022/08/23 06:11:21;;;;;;;11.40;6.93;;;20.90;92.20;;;;;;5104495;28;20088;-82
2022/08/23 06:13:59;;;;;;;11.38;5.80;;;21.00;92.20;;;;;;5099643;28;20024;-82
2022/08/23 06:16:28;;;;;;;9.35;6.03;;;21.00;92.10;;;;;;5112158;28;20028;-83
2022/08/23 06:18:56;;;;;;;10.60;6.97;;;21.00;92.10;;;;;;5096939;28;19996;-81
2022/08/23 06:21:23;;;;;;;11.93;7.60;;;21.00;92.40;;;;;;5099220;28;20026;-82
2022/08/23 06:23:49;;;;;;;11.98;7.55;;;21.10;92.20;;;;;;5095479;28;20044;-81
2022/08/23 06:26:20;;;;;;;13.75;7.07;;;21.10;92.20;;;;;;5096787;28;20077;-81
2022/08/23 06:28:48;;;;;;;9.68;6.82;;;21.10;92.30;;;;;;5084453;28;20024;-81
2022/08/23 06:31:13;;;;;;;9.23;6.30;;;21.20;92.30;;;;;;5100149;28;20012;-81
2022/08/23 06:33:42;;;;;;;9.38;6.90;;;21.20;92.20;;;;;;5099975;28;20047;-81
2022/08/23 06:36:12;;;;;;;10.65;7.28;;;21.30;92.30;;;;;;5065450;28;20032;-82
2022/08/23 06:38:40;;;;;;;12.20;7.33;;;21.30;92.30;;;;;;5088614;28;20020;-81
2022/08/23 06:41:09;;;;;;;11.10;6.95;;;21.30;92.30;;;;;;5131942;28;20330;-81
2022/08/23 06:43:36;;;;;;;11.32;6.63;;;21.40;92.40;;;;;;5115781;28;20019;-84
2022/08/23 06:46:28;;;;;;;9.18;6.68;;;21.40;92.50;;;;;;5088861;28;20031;-85
2022/08/23 06:48:55;;;;;;;9.25;6.28;;;21.50;92.50;;;;;;5085722;28;20088;-86
2022/08/23 06:51:28;;;;;;;11.25;7.07;;;21.50;92.50;;;;;;5108185;28;20012;-83
2022/08/23 06:53:56;;;;;;;11.52;6.60;;;21.50;92.50;;;;;;5098636;28;20012;-82
2022/08/23 06:56:23;;;;;;;9.65;6.15;;;21.60;92.40;;;;;;5098852;28;20134;-80
2022/08/23 06:58:50;;;;;;;12.73;6.57;;;21.60;92.40;;;;;;5116622;28;20036;-78
2022/08/23 07:01:50;;;;;;;8.88;5.95;;;21.60;92.30;;;;;;5120880;28;20034;-78
2022/08/23 07:04:20;;;;;;;10.88;6.10;;;21.70;92.30;;;;;;5100156;28;20039;-79
2022/08/23 07:06:46;;;;;;;10.88;6.80;;;21.70;92.30;;;;;;5102910;28;20102;-79
2022/08/23 07:09:12;;;;;;;11.02;6.22;;;21.80;92.30;;;;;;5082064;28;20047;-79
2022/08/23 07:11:38;;;;;;;12.82;7.22;;;21.80;92.20;;;;;;5118616;28;20028;-81
2022/08/23 07:14:06;;;;;;;10.10;6.10;;;21.90;92.20;;;;;;5068829;28;20050;-79
2022/08/23 07:16:43;;;;;;;9.63;6.97;;;21.90;92.10;;;;;;5086334;28;20032;-79
2022/08/23 07:19:09;;;;;;;13.43;7.45;;;22.00;92.10;;;;;;5095605;28;20078;-79
2022/08/23 07:21:35;;;;;;;11.95;7.18;;;22.00;92.10;;;;;;5079896;28;20058;-78
2022/08/23 07:24:02;;;;;;;11.85;7.68;;;22.10;92.00;;;;;;5077442;28;20032;-79
2022/08/23 07:26:28;;;;;;;11.77;7.10;;;22.10;92.00;;;;;;5078207;28;20510;-78
2022/08/23 07:28:54;;;;;;;12.48;7.65;;;22.20;91.80;;;;;;5095426;28;20025;-79
2022/08/23 07:31:25;;;;;;;13.73;7.60;;;22.20;91.80;;;;;;5095968;28;20031;-79
2022/08/23 07:33:52;;;;;;;12.93;7.00;;;22.30;91.80;;;;;;5078090;28;20028;-79
2022/08/23 07:36:21;;;;;;;12.10;6.97;;;22.30;91.80;;;;;;5095455;28;20024;-78
2022/08/23 07:38:47;;;;;;;13.40;7.10;;;22.40;91.70;;;;;;5112042;28;20103;-77
2022/08/23 07:41:13;;;;;;;9.25;6.53;;;22.40;91.60;;;;;;5093827;28;20020;-77
2022/08/23 07:43:39;;;;;;;13.38;8.20;;;22.50;91.60;;;;;;5095863;28;20016;-77
2022/08/23 07:46:06;;;;;;;11.55;7.43;;;22.60;91.60;;;;;;5125247;27;20130;-77
2022/08/23 07:48:33;;;;;;;10.95;7.20;;;22.60;91.50;;;;;;5077286;28;20016;-78
2022/08/23 07:51:01;;;;;;;12.70;6.38;;;22.70;91.50;;;;;;5110382;28;20027;-78
2022/08/23 07:53:27;;;;;;;10.82;6.68;;;22.70;91.50;;;;;;5097130;28;20026;-78
2022/08/23 07:55:54;;;;;;;13.20;7.30;;;22.80;91.40;;;;;;5114454;28;20479;-77
2022/08/23 07:58:21;;;;;;;13.15;7.22;;;22.90;91.30;;;;;;5108320;28;20070;-79
2022/08/23 08:00:47;;;;;;;10.13;6.45;;;23.00;91.00;;;;;;5088804;28;20357;-78
2022/08/23 08:03:13;;;;;;;12.90;6.57;;;23.00;90.90;;;;;;5099652;28;20030;-79
2022/08/23 08:05:39;;;;;;;12.38;7.38;;;23.10;90.90;;;;;;5114257;28;20449;-79
2022/08/23 08:08:06;;;;;;;10.38;6.60;;;23.20;90.80;;;;;;5115174;28;20024;-78
2022/08/23 08:10:35;;;;;;;9.38;5.63;;;23.20;90.70;;;;;;5107276;28;20099;-80
2022/08/23 08:13:01;;;;;;;10.45;6.25;;;23.30;90.70;;;;;;5077334;28;20431;-80
2022/08/23 08:15:27;;;;;;;12.55;6.00;;;23.40;90.70;;;;;;5097059;28;20028;-79
2022/08/23 08:17:53;;;;;;;12.13;6.85;;;23.50;90.60;;;;;;5097428;28;20493;-79
2022/08/23 08:20:19;;;;;;;13.52;7.35;;;23.60;90.60;;;;;;5114148;27;20027;-79
2022/08/23 08:22:46;;;;;;;11.55;6.60;;;23.60;90.50;;;;;;5080275;28;20060;-78
2022/08/23 08:25:12;;;;;;;11.75;6.10;;;23.70;90.40;;;;;;5080301;28;20032;-78
2022/08/23 08:27:39;;;;;;;13.40;6.65;;;23.80;90.20;;;;;;5080293;28;20019;-79
2022/08/23 08:30:06;;;;;;;10.52;5.13;;;23.90;90.20;;;;;;5096994;28;20099;-79
2022/08/23 08:32:32;;;;;;;11.18;4.50;;;24.00;90.20;;;;;;5114854;28;20020;-79
2022/08/23 08:34:58;;;;;;;11.52;5.32;;;24.10;90.20;;;;;;5113952;28;20093;-78
2022/08/23 08:37:24;;;;;;;14.13;5.50;;;24.10;90.10;;;;;;5077273;28;20035;-80
2022/08/23 08:39:50;;;;;;;10.13;4.90;;;24.20;89.70;;;;;;5087749;28;20028;-78
2022/08/23 08:42:44;;;;;;;13.32;5.82;;;24.30;89.20;;;;;;5082576;28;20023;-80
2022/08/23 08:45:18;;;;;;;14.07;5.45;;;24.40;89.00;;;;;;5112636;28;20114;-78
2022/08/23 08:47:49;;;;;;;14.88;5.57;;;24.50;88.70;;;;;;5096354;28;20111;-78
2022/08/23 08:50:19;;;;;;;9.55;4.70;;;24.60;88.30;;;;;;5096701;28;20046;-79
2022/08/23 08:52:50;;;;;;;8.70;4.82;;;24.70;87.70;;;;;;5096353;28;20024;-78
2022/08/23 08:55:27;;;;;;;11.93;5.43;;;24.80;87.50;;;;;;5082355;28;20024;-78
2022/08/23 08:57:54;;;;;;;9.40;4.88;;;24.80;87.40;;;;;;5115129;28;20054;-79
2022/08/23 09:00:31;;;;;;;10.05;4.60;;;24.90;87.10;;;;;;5096294;28;20037;-79
2022/08/23 09:02:58;;;;;;;10.85;4.50;;;25.00;86.80;;;;;;5096658;28;20494;-79
2022/08/23 09:05:30;;;;;;;10.50;4.53;;;25.10;86.40;;;;;;5096382;28;20081;-79
2022/08/23 09:08:38;;;;;;;10.77;4.35;;;25.20;86.10;;;;;;5091623;28;20448;-79
2022/08/23 09:11:21;;;;;;;9.25;3.90;;;25.30;86.00;;;;;;5092429;28;20103;-79
2022/08/23 09:14:14;;;;;;;9.05;4.85;;;25.40;85.70;;;;;;5091159;28;20027;-79
2022/08/23 09:16:53;;;;;;;10.27;3.90;;;25.50;85.30;;;;;;5092785;28;20031;-79
2022/08/23 09:19:21;;;;;;;8.30;3.60;;;25.50;84.70;;;;;;5095066;28;20027;-79
2022/08/23 09:22:07;;;;;;;6.88;3.67;;;25.60;84.40;;;;;;5087522;28;20100;-79
2022/08/23 09:24:33;;;;;;;7.20;3.55;;;25.70;84.30;;;;;;5084697;28;20490;-79
2022/08/23 09:27:00;;;;;;;10.48;3.70;;;25.80;84.00;;;;;;5097823;28;20027;-78
2022/08/23 09:29:27;;;;;;;7.55;3.38;;;25.80;83.70;;;;;;5078878;28;20051;-79
2022/08/23 09:32:01;;;;;;;7.50;3.45;;;25.90;83.60;;;;;;5075255;28;20028;-80
2022/08/23 09:34:29;;;;;;;8.35;3.55;;;26.00;83.30;;;;;;5070317;28;20124;-80
2022/08/23 09:37:08;;;;;;;8.93;3.55;;;26.10;82.70;;;;;;5094788;28;20020;-85
2022/08/23 09:39:40;;;;;;;9.20;3.28;;;26.10;82.10;;;;;;5114932;27;20038;-83
2022/08/23 09:42:37;;;;;;;9.50;3.08;;;26.20;81.90;;;;;;5094941;28;20024;-84
2022/08/23 09:45:28;;;;;;;6.95;3.78;;;26.30;81.40;;;;;;5074986;28;20023;-82
2022/08/23 09:47:53;;;;;;;11.32;3.88;;;26.40;80.40;;;;;;5095006;28;20016;-83
2022/08/23 09:50:29;;;;;;;6.88;2.90;;;26.50;78.90;;;;;;5057371;28;20120;-82
2022/08/23 09:52:59;;;;;;;9.20;3.15;;;26.50;78.10;;;;;;5076636;28;20024;-83
2022/08/23 09:55:39;;;;;;;6.68;2.60;;;26.60;78.00;;;;;;5080109;28;20020;-82
2022/08/23 09:58:41;;;;;;;8.15;3.03;;;26.80;78.30;;;;;;5114089;28;20020;-82
2022/08/23 10:01:15;;;;;;;8.85;3.53;;;26.80;78.60;;;;;;5092994;28;20043;-82
2022/08/23 10:03:41;;;;;;;8.30;3.20;;;26.90;77.40;;;;;;5081321;28;20035;-82
2022/08/23 10:06:09;;;;;;;8.88;3.92;;;27.00;76.90;;;;;;5078739;28;20111;-81
2022/08/23 10:08:51;;;;;;;10.02;3.10;;;27.10;76.40;;;;;;5094903;28;20020;-81
2022/08/23 10:11:21;;;;;;;6.93;3.60;;;27.20;76.20;;;;;;5075322;28;20368;-81
2022/08/23 10:13:47;;;;;;;8.75;3.92;;;27.20;75.70;;;;;;5108927;28;20077;-81
2022/08/23 10:16:53;;;;;;;13.73;3.35;;;27.30;75.00;;;;;;5095422;28;20023;-79
2022/08/23 10:19:24;;;;;;;7.50;2.80;;;27.40;75.00;;;;;;5094681;28;20524;-79
2022/08/23 10:22:22;;;;;;;8.88;2.92;;;27.50;74.80;;;;;;5113286;28;20027;-80
2022/08/23 10:24:52;;;;;;;7.72;2.58;;;27.50;74.70;;;;;;5071272;28;20129;-80
2022/08/23 10:30:50;;;;;;;7.35;3.03;;;27.70;74.40;;;;;;5099423;28;20180;-80
2022/08/23 10:33:24;;;;;;;10.82;3.15;;;27.80;73.80;;;;;;5074237;28;20016;-80
2022/08/23 10:35:53;;;;;;;8.73;2.50;;;27.90;73.50;;;;;;5084482;28;20487;-80
2022/08/23 10:38:43;;;;;;;8.00;2.70;;;28.00;72.20;;;;;;5091478;28;20024;-80
2022/08/23 10:41:37;;;;;;;12.30;4.07;;;28.00;71.30;;;;;;5096082;28;20381;-81
2022/08/23 10:44:11;;;;;;;9.15;2.88;;;28.10;69.00;;;;;;5078436;28;20430;-80
2022/08/23 10:46:46;;;;;;;6.85;3.08;;;28.10;68.50;;;;;;5078492;28;20032;-80
2022/08/23 10:49:12;;;;;;;8.45;2.85;;;28.20;68.60;;;;;;5097180;28;20527;-80
2022/08/23 10:51:46;;;;;;;6.55;2.05;;;28.30;68.10;;;;;;5079781;28;20517;-81
2022/08/23 10:54:17;;;;;;;6.75;2.00;;;28.30;67.90;;;;;;5099239;28;20470;-81
2022/08/23 10:56:43;;;;;;;9.75;2.75;;;28.40;67.40;;;;;;5099188;28;20026;-86
2022/08/23 10:59:19;;;;;;;14.13;2.60;;;28.50;66.80;;;;;;5093639;28;20020;-84
2022/08/23 11:02:05;;;;;;;5.68;2.03;;;28.50;65.50;;;;;;5093714;28;20024;-84
2022/08/23 11:04:55;;;;;;;5.75;1.85;;;28.60;66.00;;;;;;5111953;28;20054;-80
2022/08/23 11:07:33;;;;;;;4.27;2.20;;;28.70;66.00;;;;;;5089373;28;20016;-80
2022/08/23 11:10:04;;;;;;;8.63;2.70;;;28.70;64.50;;;;;;5077145;28;20027;-81
2022/08/23 11:12:34;;;;;;;9.70;2.83;;;28.80;64.00;;;;;;5098883;28;20023;-80
2022/08/23 11:15:06;;;;;;;11.07;2.92;;;28.80;63.90;;;;;;5077629;28;20110;-81
2022/08/23 11:17:54;;;;;;;11.50;2.83;;;28.90;64.10;;;;;;5095583;28;20043;-80
2022/08/23 11:20:48;;;;;;;8.63;2.08;;;29.00;63.80;;;;;;5077725;28;20020;-81
2022/08/23 11:23:35;;;;;;;6.22;2.47;;;29.00;63.80;;;;;;5084729;28;20089;-80
2022/08/23 11:26:03;;;;;;;6.90;2.17;;;29.20;63.60;;;;;;5077214;28;20035;-80
2022/08/23 11:28:45;;;;;;;3.90;2.15;;;29.20;63.00;;;;;;5094266;28;20431;-80
2022/08/23 11:31:11;;;;;;;6.63;2.35;;;29.30;63.20;;;;;;5077426;28;20008;-81
2022/08/23 11:34:12;;;;;;;6.43;2.10;;;29.40;63.00;;;;;;5077689;28;20031;-80
2022/08/23 11:36:38;;;;;;;5.90;2.50;;;29.50;62.90;;;;;;5072435;28;20031;-80
2022/08/23 11:39:10;;;;;;;3.97;2.25;;;29.50;62.80;;;;;;5077218;28;20365;-81
2022/08/23 11:42:00;;;;;;;3.75;1.90;;;29.60;63.00;;;;;;5095574;28;20027;-82
2022/08/23 11:44:41;;;;;;;7.55;2.38;;;29.70;63.20;;;;;;5095310;28;20081;-82
2022/08/23 11:47:09;;;;;;;7.40;2.38;;;29.70;60.50;;;;;;5066917;28;20437;-81
2022/08/23 11:50:11;;;;;;;7.38;2.58;;;29.80;60.60;;;;;;5095664;28;20028;-82
2022/08/23 11:53:04;;;;;;;7.43;2.47;;;29.80;60.60;;;;;;5049802;28;20375;-81
2022/08/23 11:55:38;;;;;;;5.95;2.45;;;30.00;60.90;;;;;;5097462;28;20364;-81
2022/08/23 11:58:13;;;;;;;6.80;2.45;;;30.00;60.90;;;;;;5097377;28;20029;-81
2022/08/23 12:01:06;;;;;;;5.82;2.83;;;30.00;60.50;;;;;;5083184;28;20076;-82
2022/08/23 12:03:58;;;;;;;6.18;2.45;;;30.10;59.90;;;;;;5082001;28;20020;-81
2022/08/23 12:06:36;;;;;;;6.68;2.75;;;30.10;59.70;;;;;;5095205;28;20428;-81
2022/08/23 12:09:19;;;;;;;6.07;2.60;;;30.20;59.90;;;;;;5113358;28;20019;-81
2022/08/23 12:11:54;;;;;;;8.13;2.67;;;30.20;60.00;;;;;;5097233;28;20027;-81
2022/08/23 12:14:41;;;;;;;8.55;2.67;;;30.30;60.50;;;;;;5091074;28;20133;-81
2022/08/23 12:17:24;;;;;;;6.90;2.08;;;30.30;60.00;;;;;;5109502;28;20342;-81
2022/08/23 12:20:09;;;;;;;9.68;2.30;;;30.40;60.50;;;;;;5096464;28;20028;-82
2022/08/23 12:22:56;;;;;;;8.02;2.53;;;30.50;61.10;;;;;;5095056;28;20031;-81
2022/08/23 12:25:22;;;;;;;8.77;2.50;;;30.60;58.50;;;;;;5082522;28;20035;-81
2022/08/23 12:27:55;;;;;;;6.80;2.22;;;30.60;57.70;;;;;;5107965;28;20111;-81
2022/08/23 12:30:26;;;;;;;8.70;2.53;;;30.70;57.20;;;;;;5089360;28;20024;-80
2022/08/23 12:33:13;;;;;;;4.75;1.95;;;30.80;57.10;;;;;;5126540;27;20042;-80
2022/08/23 12:35:46;;;;;;;3.65;1.90;;;30.80;56.60;;;;;;5090860;28;20031;-81
2022/08/23 12:38:30;;;;;;;9.02;2.03;;;30.90;56.50;;;;;;5069770;28;20047;-81
2022/08/23 12:40:55;;;;;;;9.32;2.05;;;30.90;56.70;;;;;;5096872;28;20020;-81
2022/08/23 12:43:28;;;;;;;4.68;1.90;;;30.90;56.80;;;;;;5080067;28;20020;-78
2022/08/23 12:45:57;;;;;;;5.88;1.90;;;31.00;57.10;;;;;;5096555;28;20019;-78
2022/08/23 12:48:28;;;;;;;7.25;2.47;;;31.00;57.00;;;;;;5087236;28;20106;-78
2022/08/23 12:51:09;;;;;;;8.15;2.22;;;31.00;57.10;;;;;;5114583;28;20073;-79
2022/08/23 12:53:41;;;;;;;6.45;2.00;;;31.10;57.30;;;;;;5096356;28;20015;-78
2022/08/23 12:56:16;;;;;;;7.95;2.65;;;31.10;57.70;;;;;;5095978;28;20477;-79
2022/08/23 12:58:47;;;;;;;6.38;2.25;;;31.20;57.70;;;;;;5106720;28;20023;-79
2022/08/23 13:01:35;;;;;;;6.55;2.10;;;31.20;57.40;;;;;;5075964;28;20024;-78
2022/08/23 13:04:10;;;;;;;5.45;1.90;;;31.30;57.20;;;;;;5080807;28;20028;-78
2022/08/23 13:06:43;;;;;;;4.18;1.83;;;31.30;56.70;;;;;;5094258;28;20492;-78
2022/08/23 13:09:15;;;;;;;4.07;1.92;;;31.40;57.00;;;;;;5075855;28;20395;-78
2022/08/23 13:11:41;;;;;;;5.05;2.05;;;31.40;56.30;;;;;;5076251;28;20056;-78
2022/08/23 13:14:26;;;;;;;5.07;2.25;;;31.40;55.90;;;;;;5075710;28;20024;-78
2022/08/23 13:16:53;;;;;;;5.05;1.98;;;31.40;56.10;;;;;;5072612;28;20544;-78